Time;durP1;ratioP1;P1;durP2;ratioP2;P2;SDS_P1;SDS_P2;PMS_P1;PMS_P2;Temp;Humidity;BMP_temperature;BMP_pressure;BME280_temperature;BME280_humidity;BME280_pressure;Samples;Min_cycle;Max_cycle;Signal;HPM_P1;HPM_P2
2023/03/15 00:01:40;;;;;;;16.10;15.18;;;;;;;11.14;53.27;101095.25;5067745;28;20029;-68
2023/03/15 00:04:06;;;;;;;14.88;14.07;;;;;;;11.13;53.35;101090.06;5051155;28;20374;-67
2023/03/15 00:06:33;;;;;;;16.42;15.52;;;;;;;11.12;53.36;101091.13;5053407;28;20032;-67
2023/03/15 00:09:01;;;;;;;15.80;14.70;;;;;;;11.11;53.38;101090.28;5055892;28;20041;-69
2023/03/15 00:11:31;;;;;;;17.10;16.10;;;;;;;11.10;53.27;101094.06;5053993;28;20044;-67
2023/03/15 00:13:57;;;;;;;15.45;14.55;;;;;;;11.08;53.45;101096.19;5046781;28;20454;-68
2023/03/15 00:16:26;;;;;;;15.70;14.68;;;;;;;11.07;53.50;101099.13;5034636;28;20030;-67
2023/03/15 00:18:53;;;;;;;16.98;16.02;;;;;;;11.07;53.43;101099.94;5035471;28;20033;-67
2023/03/15 00:21:19;;;;;;;16.92;15.90;;;;;;;11.06;53.79;101101.00;5056897;28;20109;-67
2023/03/15 00:23:45;;;;;;;15.80;14.73;;;;;;;11.06;53.57;101103.69;5052412;28;20041;-68
2023/03/15 00:26:11;;;;;;;15.48;14.68;;;;;;;11.03;53.48;101115.81;5034976;28;20037;-67
2023/03/15 00:28:36;;;;;;;14.98;14.18;;;;;;;11.03;53.23;101110.41;5034762;28;20028;-68
2023/03/15 00:31:20;;;;;;;15.63;14.75;;;;;;;11.03;53.45;101112.28;5043321;28;20049;-68
2023/03/15 00:33:46;;;;;;;15.27;14.48;;;;;;;11.01;53.59;101125.22;5053930;28;20483;-67
2023/03/15 00:36:12;;;;;;;14.90;14.10;;;;;;;11.00;53.52;101118.19;5050252;28;20473;-69
2023/03/15 00:38:39;;;;;;;15.05;14.25;;;;;;;10.99;53.46;101116.53;5034696;28;20458;-68
2023/03/15 00:41:07;;;;;;;14.77;13.98;;;;;;;10.98;53.55;101120.28;5037865;28;20063;-68
2023/03/15 00:43:33;;;;;;;15.48;14.32;;;;;;;10.96;53.57;101120.53;5042786;28;20121;-68
2023/03/15 00:45:58;;;;;;;14.68;13.93;;;;;;;10.96;53.41;101125.09;5034237;28;20109;-69
2023/03/15 00:48:24;;;;;;;16.95;15.88;;;;;;;10.95;53.44;101128.88;5049500;28;20041;-67
2023/03/15 00:50:49;;;;;;;14.88;14.07;;;;;;;10.93;53.77;101123.69;5034862;28;20039;-68
2023/03/15 00:53:14;;;;;;;16.20;15.30;;;;;;;10.91;53.82;101131.22;5051845;28;20049;-67
2023/03/15 00:55:41;;;;;;;14.73;13.93;;;;;;;10.91;53.91;101127.69;5039559;28;20025;-67
2023/03/15 00:58:06;;;;;;;14.30;13.50;;;;;;;10.90;53.79;101120.66;5034339;28;20037;-67
2023/03/15 01:00:32;;;;;;;16.00;15.10;;;;;;;10.88;53.76;101120.06;5033911;28;20033;-67
2023/03/15 01:02:57;;;;;;;14.70;13.90;;;;;;;10.88;53.86;101125.47;5047805;28;20033;-68
2023/03/15 01:05:23;;;;;;;16.65;15.65;;;;;;;10.87;53.81;101131.94;5046184;28;20037;-67
2023/03/15 01:07:48;;;;;;;15.90;15.07;;;;;;;10.86;53.74;101130.28;5034038;28;20089;-68
2023/03/15 01:10:15;;;;;;;15.38;14.55;;;;;;;10.85;53.79;101132.16;5034332;28;20033;-68
2023/03/15 01:12:40;;;;;;;15.60;14.75;;;;;;;10.85;54.03;101136.75;5037552;28;20029;-67
2023/03/15 01:15:07;;;;;;;15.25;14.40;;;;;;;10.85;53.78;101139.44;5032525;28;20091;-68
2023/03/15 01:17:33;;;;;;;16.98;15.98;;;;;;;10.84;53.97;101138.63;5033409;28;20018;-68
2023/03/15 01:19:59;;;;;;;15.90;15.10;;;;;;;10.82;53.74;101141.56;5033078;28;20038;-68
2023/03/15 01:22:25;;;;;;;17.90;16.70;;;;;;;10.81;53.82;101139.09;5041273;28;20476;-68
2023/03/15 01:24:50;;;;;;;14.80;14.00;;;;;;;10.80;54.12;101149.06;5053941;28;20041;-67
2023/03/15 01:27:16;;;;;;;16.45;15.45;;;;;;;10.80;53.80;101142.84;5033858;28;20033;-68
2023/03/15 01:29:41;;;;;;;14.98;13.98;;;;;;;10.79;53.82;101147.44;5033519;28;20034;-69
2023/03/15 01:32:07;;;;;;;16.05;15.15;;;;;;;10.79;53.87;101150.13;5034303;28;20109;-68
2023/03/15 01:34:33;;;;;;;19.45;18.05;;;;;;;10.78;53.93;101153.88;5065608;28;20037;-69
2023/03/15 01:36:59;;;;;;;15.95;14.95;;;;;;;10.78;53.89;101153.06;5062205;28;20100;-68
2023/03/15 01:39:25;;;;;;;16.92;15.82;;;;;;;10.78;53.94;101163.88;5041670;28;20104;-67
2023/03/15 01:41:50;;;;;;;15.48;14.52;;;;;;;10.77;53.94;101164.94;5041091;28;20033;-68
2023/03/15 01:44:18;;;;;;;16.10;15.18;;;;;;;10.77;53.89;101164.94;5034937;28;20033;-68
2023/03/15 01:46:43;;;;;;;16.30;15.05;;;;;;;10.76;53.86;101164.13;5034825;28;20378;-68
2023/03/15 01:49:22;;;;;;;15.27;14.32;;;;;;;10.76;53.82;101171.38;5034332;28;20117;-68
2023/03/15 01:51:57;;;;;;;16.95;15.85;;;;;;;10.75;54.09;101189.47;5035540;28;20017;-68
2023/03/15 01:54:28;;;;;;;16.77;15.70;;;;;;;10.74;53.98;101187.03;5035663;28;20489;-68
2023/03/15 01:57:03;;;;;;;16.08;14.98;;;;;;;10.73;53.90;101186.19;5035158;28;20033;-68
2023/03/15 01:59:41;;;;;;;15.55;14.45;;;;;;;10.71;54.10;101188.31;5033910;28;20026;-68
2023/03/15 02:02:07;;;;;;;16.48;15.48;;;;;;;10.68;54.01;101188.75;5035013;28;20029;-68
2023/03/15 02:04:48;;;;;;;16.92;15.82;;;;;;;10.68;54.08;101202.25;5034849;28;20120;-68
2023/03/15 02:07:16;;;;;;;15.80;14.80;;;;;;;10.69;54.05;101197.72;5034945;28;20050;-68
2023/03/15 02:10:04;;;;;;;16.05;15.07;;;;;;;10.68;53.96;101193.34;5034293;28;20036;-68
2023/03/15 02:12:33;;;;;;;16.50;15.40;;;;;;;10.66;53.89;101196.31;5034350;28;20107;-68
2023/03/15 02:15:00;;;;;;;;;;;;;;;10.64;53.99;101201.09;5035102;28;20414;-68
2023/03/15 02:17:37;;;;;;;16.23;15.25;;;;;;;10.64;53.67;101203.81;5034850;28;19966;-68
2023/03/15 02:20:03;;;;;;;14.95;14.15;;;;;;;10.62;54.02;101197.81;5049613;28;20039;-68
2023/03/15 02:22:48;;;;;;;16.92;15.77;;;;;;;10.63;54.08;101201.31;5034434;28;20397;-68
2023/03/15 02:25:13;;;;;;;16.90;15.90;;;;;;;10.62;54.13;101195.09;5049875;28;20116;-68
2023/03/15 02:27:39;;;;;;;16.85;15.70;;;;;;;10.61;54.13;101204.28;5034348;28;20108;-68
2023/03/15 02:30:06;;;;;;;16.95;15.95;;;;;;;10.62;54.04;101203.22;5035110;28;20420;-68
2023/03/15 02:32:31;;;;;;;16.25;15.25;;;;;;;10.63;53.93;101204.03;5034442;28;20029;-68
2023/03/15 02:34:57;;;;;;;15.57;14.77;;;;;;;10.61;54.02;101204.28;5034077;28;20079;-68
2023/03/15 02:37:23;;;;;;;14.80;14.00;;;;;;;10.61;54.07;101206.97;5034803;28;20043;-69
2023/03/15 02:39:48;;;;;;;16.13;15.23;;;;;;;10.60;54.06;101199.91;5033105;28;20030;-68
2023/03/15 02:42:13;;;;;;;15.55;14.65;;;;;;;10.60;54.10;101213.41;5034194;28;20033;-68
2023/03/15 02:44:43;;;;;;;18.63;17.52;;;;;;;10.58;54.17;101207.41;5034610;28;20033;-67
2023/03/15 02:47:29;;;;;;;14.43;13.63;;;;;;;10.56;54.22;101210.38;5034538;28;20021;-67
2023/03/15 02:49:54;;;;;;;14.88;14.07;;;;;;;10.55;54.21;101221.38;5034383;28;20029;-68
2023/03/15 02:52:21;;;;;;;15.65;14.65;;;;;;;10.55;54.18;101216.00;5032670;28;20493;-67
2023/03/15 02:54:47;;;;;;;17.02;15.60;;;;;;;10.54;54.16;101219.75;5032571;28;20528;-67
2023/03/15 02:57:14;;;;;;;15.18;14.38;;;;;;;10.52;54.40;101221.84;5033835;28;20029;-66
2023/03/15 02:59:41;;;;;;;17.17;15.90;;;;;;;10.52;54.43;101230.78;5033848;28;20033;-67
2023/03/15 03:02:08;;;;;;;15.00;14.20;;;;;;;10.52;54.27;101238.88;5033829;28;20101;-68
2023/03/15 03:04:33;;;;;;;16.55;15.55;;;;;;;10.52;54.24;101246.97;5033708;28;20025;-68
2023/03/15 03:06:59;;;;;;;17.67;16.45;;;;;;;10.52;54.23;101248.88;5033744;28;20134;-67
2023/03/15 03:09:24;;;;;;;14.98;14.15;;;;;;;10.51;54.11;101250.75;5034261;28;20434;-67
2023/03/15 03:11:50;;;;;;;15.50;14.60;;;;;;;10.50;54.23;101254.50;5049685;28;20381;-67
2023/03/15 03:14:15;;;;;;;14.77;13.93;;;;;;;10.50;54.23;101261.78;5033923;28;20397;-67
2023/03/15 03:16:44;;;;;;;15.30;14.30;;;;;;;10.49;54.26;101252.84;5033584;28;20033;-67
2023/03/15 03:19:13;;;;;;;16.60;15.60;;;;;;;10.50;54.38;101269.88;5033473;28;20037;-67
2023/03/15 03:21:38;;;;;;;16.40;15.15;;;;;;;10.49;54.21;101273.66;5032827;28;20025;-67
2023/03/15 03:24:04;;;;;;;15.85;14.95;;;;;;;10.47;54.28;101270.34;5016349;28;20033;-67
2023/03/15 03:26:31;;;;;;;16.88;15.93;;;;;;;10.47;54.29;101281.16;5033233;28;20029;-67
2023/03/15 03:28:57;;;;;;;15.98;15.07;;;;;;;10.45;54.42;101281.38;5033356;28;20539;-67
2023/03/15 03:31:24;;;;;;;14.35;13.45;;;;;;;10.45;54.26;101294.88;5033045;28;20034;-67
2023/03/15 03:33:50;;;;;;;15.35;14.45;;;;;;;10.45;54.09;101283.25;5033622;28;20041;-67
2023/03/15 03:36:16;;;;;;;15.02;14.23;;;;;;;10.44;54.17;101290.53;5033356;28;20112;-67
2023/03/15 03:38:43;;;;;;;16.98;15.65;;;;;;;10.43;54.20;101285.34;5033292;28;20179;-67
2023/03/15 03:41:10;;;;;;;15.98;15.07;;;;;;;10.44;54.06;101290.53;5033314;28;20030;-67
2023/03/15 03:43:35;;;;;;;16.63;15.60;;;;;;;10.43;54.17;101293.44;5033243;28;20040;-67
2023/03/15 03:46:01;;;;;;;13.50;12.75;;;;;;;10.42;54.08;101286.41;5033764;28;20033;-67
2023/03/15 03:48:26;;;;;;;15.27;14.27;;;;;;;10.42;54.25;101297.22;5033458;28;20056;-67
2023/03/15 03:50:52;;;;;;;14.73;13.93;;;;;;;10.41;54.26;101296.41;5033243;28;20092;-67
2023/03/15 03:53:17;;;;;;;13.93;13.13;;;;;;;10.39;54.34;101306.59;5032710;28;20087;-67
2023/03/15 03:55:42;;;;;;;16.52;15.45;;;;;;;10.39;54.16;101303.91;5048439;28;20446;-67
2023/03/15 03:58:08;;;;;;;14.88;13.98;;;;;;;10.36;54.23;101310.56;5033199;28;20108;-67
2023/03/15 04:00:34;;;;;;;16.30;15.30;;;;;;;10.36;54.19;101318.69;5033167;28;20087;-67
2023/03/15 04:03:00;;;;;;;14.80;14.00;;;;;;;10.34;54.13;101318.06;5033130;28;20037;-67
2023/03/15 04:05:27;;;;;;;14.35;13.55;;;;;;;10.33;54.10;101315.59;5033173;28;20029;-68
2023/03/15 04:07:52;;;;;;;15.43;14.52;;;;;;;10.32;54.34;101325.56;5032992;28;20623;-67
2023/03/15 04:10:18;;;;;;;15.75;14.85;;;;;;;10.31;54.03;101329.34;5032742;28;20067;-68
2023/03/15 04:12:43;;;;;;;15.70;14.70;;;;;;;10.30;54.05;101333.06;5033257;28;20067;-68
2023/03/15 04:15:13;;;;;;;16.38;15.43;;;;;;;10.29;54.10;101342.22;5033066;28;20470;-67
2023/03/15 04:17:38;;;;;;;18.73;17.50;;;;;;;10.29;54.20;101349.50;5048291;28;20036;-67
2023/03/15 04:20:10;;;;;;;15.25;14.25;;;;;;;10.28;54.20;101347.84;5031717;28;20030;-67
2023/03/15 04:22:37;;;;;;;14.65;13.75;;;;;;;10.27;53.89;101343.47;5032895;28;20065;-67
2023/03/15 04:25:02;;;;;;;14.27;13.38;;;;;;;10.27;54.25;101354.28;5033022;28;20477;-67
2023/03/15 04:27:28;;;;;;;15.52;14.63;;;;;;;10.25;54.22;101351.78;5033040;28;20036;-67
2023/03/15 04:29:54;;;;;;;14.60;13.80;;;;;;;10.25;53.99;101361.78;5033097;28;20037;-67
2023/03/15 04:32:19;;;;;;;14.82;14.02;;;;;;;10.24;54.13;101363.66;5035581;28;20045;-67
2023/03/15 04:34:50;;;;;;;15.38;14.38;;;;;;;10.23;54.21;101369.25;5052510;28;20095;-68
2023/03/15 04:37:16;;;;;;;14.32;13.43;;;;;;;10.21;54.26;101357.88;5036855;28;20060;-67
2023/03/15 04:39:42;;;;;;;15.65;14.68;;;;;;;10.19;54.05;101377.81;5037180;28;20065;-67
2023/03/15 04:42:07;;;;;;;15.13;14.32;;;;;;;10.20;54.18;101370.53;5035776;28;20099;-66
2023/03/15 04:44:32;;;;;;;14.20;13.40;;;;;;;10.18;53.99;101376.19;5036447;28;20037;-69
2023/03/15 04:46:58;;;;;;;14.73;13.88;;;;;;;10.16;54.06;101377.47;5036335;28;20026;-69
2023/03/15 04:49:23;;;;;;;14.60;13.77;;;;;;;10.16;54.18;101377.47;5036386;28;20382;-69
2023/03/15 04:51:49;;;;;;;16.38;15.38;;;;;;;10.15;54.08;101375.78;5036262;28;20034;-66
2023/03/15 04:54:14;;;;;;;14.73;13.82;;;;;;;10.13;54.07;101378.72;5036515;28;20043;-69
2023/03/15 04:56:41;;;;;;;15.23;14.30;;;;;;;10.13;54.17;101391.38;5035152;28;20052;-69
2023/03/15 04:59:06;;;;;;;14.77;13.63;;;;;;;10.12;54.27;101384.34;5036146;28;20033;-67
2023/03/15 05:01:32;;;;;;;14.85;14.05;;;;;;;10.11;54.06;101388.09;5036096;28;20136;-67
2023/03/15 05:03:58;;;;;;;14.25;13.45;;;;;;;10.10;54.29;101383.72;5036233;28;20043;-66
2023/03/15 05:06:23;;;;;;;14.85;14.05;;;;;;;10.09;54.05;101390.19;5034989;28;20033;-67
2023/03/15 05:08:49;;;;;;;16.33;15.32;;;;;;;10.08;54.34;101402.88;5036269;28;20473;-67
2023/03/15 05:11:15;;;;;;;14.52;13.70;;;;;;;10.07;53.96;101400.38;5035938;28;20034;-67
2023/03/15 05:13:41;;;;;;;15.60;14.68;;;;;;;10.05;54.18;101403.28;5035513;28;20449;-67
2023/03/15 05:16:07;;;;;;;14.63;13.82;;;;;;;10.05;54.42;101402.47;5035893;28;20106;-66
2023/03/15 05:18:32;;;;;;;14.45;13.65;;;;;;;10.04;54.21;101403.53;5036168;28;20037;-67
2023/03/15 05:20:58;;;;;;;15.18;14.38;;;;;;;10.02;54.11;101406.44;5051161;28;20035;-67
2023/03/15 05:23:24;;;;;;;15.27;14.27;;;;;;;10.00;54.17;101405.84;5036342;28;20041;-67
2023/03/15 05:25:54;;;;;;;16.10;15.07;;;;;;;10.00;54.22;101410.41;5035584;28;20056;-67
2023/03/15 05:28:23;;;;;;;16.33;15.43;;;;;;;9.99;54.06;101417.69;5034550;28;20057;-67
2023/03/15 05:30:51;;;;;;;14.38;13.48;;;;;;;9.98;54.15;101416.06;5050865;28;20029;-67
2023/03/15 05:33:16;;;;;;;15.60;14.57;;;;;;;9.97;54.09;101417.09;5035454;28;20101;-67
2023/03/15 05:35:43;;;;;;;13.70;12.80;;;;;;;9.96;53.76;101418.16;5035769;28;20029;-68
2023/03/15 05:38:13;;;;;;;15.48;14.68;;;;;;;9.95;54.07;101414.63;5035460;28;20036;-67
2023/03/15 05:40:40;;;;;;;15.85;15.00;;;;;;;9.95;54.09;101419.16;5035305;28;20492;-67
2023/03/15 05:43:06;;;;;;;15.50;14.60;;;;;;;9.93;53.81;101424.81;5049611;28;20466;-67
2023/03/15 05:45:31;;;;;;;14.82;13.93;;;;;;;9.92;54.11;101431.25;5034811;28;20036;-67
2023/03/15 05:47:56;;;;;;;16.80;15.50;;;;;;;9.92;54.10;101441.22;5034955;28;20033;-67
2023/03/15 05:50:22;;;;;;;14.18;13.38;;;;;;;9.90;53.97;101443.31;5035054;28;20485;-67
2023/03/15 05:52:50;;;;;;;17.27;16.17;;;;;;;9.90;54.19;101448.69;5034825;28;20030;-67
2023/03/15 05:55:16;;;;;;;14.43;13.63;;;;;;;9.88;54.15;101453.50;5050484;28;20032;-67
2023/03/15 05:57:42;;;;;;;15.32;14.43;;;;;;;9.87;54.12;101454.53;5035153;28;20037;-68
2023/03/15 06:00:09;;;;;;;13.70;12.80;;;;;;;9.86;54.01;101459.13;5034945;28;20083;-68
2023/03/15 06:02:34;;;;;;;14.65;13.77;;;;;;;9.85;53.99;101456.63;5034900;28;20607;-68
2023/03/15 06:05:00;;;;;;;14.35;13.40;;;;;;;9.85;54.06;101464.72;5034843;28;20120;-68
2023/03/15 06:07:25;;;;;;;13.65;12.85;;;;;;;9.84;54.09;101465.78;5034565;28;20093;-68
2023/03/15 06:09:51;;;;;;;15.35;14.35;;;;;;;9.82;53.89;101471.38;5034872;28;20100;-68
2023/03/15 06:12:16;;;;;;;13.55;12.85;;;;;;;9.81;54.06;101475.16;5034942;28;20033;-68
2023/03/15 06:14:42;;;;;;;14.20;13.40;;;;;;;9.80;54.16;101484.25;5035305;28;20480;-68
2023/03/15 06:17:07;;;;;;;14.07;13.27;;;;;;;9.79;53.94;101496.13;5034703;28;20124;-68
2023/03/15 06:19:33;;;;;;;13.80;13.07;;;;;;;9.79;54.01;101500.69;5034944;28;20434;-67
2023/03/15 06:21:58;;;;;;;16.17;15.00;;;;;;;9.76;54.17;101504.66;5033695;28;20389;-67
2023/03/15 06:24:24;;;;;;;13.50;12.75;;;;;;;9.77;53.93;101513.56;5034328;28;20025;-66
2023/03/15 06:26:49;;;;;;;15.73;14.68;;;;;;;9.75;54.07;101511.94;5034311;28;20533;-67
2023/03/15 06:29:16;;;;;;;14.45;13.63;;;;;;;9.73;54.06;101516.72;5034505;28;20045;-67
2023/03/15 06:31:42;;;;;;;15.40;14.50;;;;;;;9.73;53.87;101516.72;5034096;28;20029;-66
2023/03/15 06:34:07;;;;;;;15.13;14.23;;;;;;;9.72;53.77;101523.13;5034626;28;20041;-67
2023/03/15 06:36:35;;;;;;;14.77;13.95;;;;;;;9.71;54.10;101529.59;5034961;28;20040;-67
2023/03/15 06:39:01;;;;;;;17.45;16.30;;;;;;;9.71;54.08;101531.47;5033800;28;20038;-67
2023/03/15 06:41:26;;;;;;;14.48;13.68;;;;;;;9.69;53.92;101531.66;5034115;28;20052;-67
2023/03/15 06:43:52;;;;;;;15.40;14.30;;;;;;;9.68;53.89;101535.41;5034760;28;20033;-67
2023/03/15 06:46:17;;;;;;;14.65;13.77;;;;;;;9.67;53.71;101546.41;5049293;28;20448;-67
2023/03/15 06:48:43;;;;;;;13.38;12.57;;;;;;;9.65;54.02;101538.56;5033842;28;20457;-67
2023/03/15 06:51:08;;;;;;;14.77;13.88;;;;;;;9.66;53.91;101550.16;5032961;28;20497;-67
2023/03/15 06:53:34;;;;;;;13.95;13.18;;;;;;;9.65;53.95;101545.81;5034066;28;20033;-67
2023/03/15 06:55:59;;;;;;;18.20;16.92;;;;;;;9.64;54.03;101554.94;5034322;28;20030;-67
2023/03/15 06:58:24;;;;;;;14.35;13.55;;;;;;;9.63;54.06;101553.31;5034395;28;20041;-67
2023/03/15 07:00:50;;;;;;;14.48;13.55;;;;;;;9.62;54.04;101560.53;5033876;28;20033;-68
2023/03/15 07:03:15;;;;;;;15.05;14.15;;;;;;;9.62;53.99;101571.34;5033594;28;20049;-67
2023/03/15 07:05:41;;;;;;;14.63;13.73;;;;;;;9.61;53.97;101561.59;5033818;28;20411;-67
2023/03/15 07:08:06;;;;;;;15.75;14.73;;;;;;;9.61;54.07;101576.97;5031885;28;20118;-68
2023/03/15 07:10:32;;;;;;;16.00;15.00;;;;;;;9.59;54.16;101579.03;5032064;28;20045;-69
2023/03/15 07:12:57;;;;;;;15.48;14.45;;;;;;;9.59;53.99;101574.47;5032336;28;20026;-67
2023/03/15 07:15:23;;;;;;;16.13;14.93;;;;;;;9.59;54.09;101579.03;5033574;28;20041;-68
2023/03/15 07:17:48;;;;;;;15.27;14.35;;;;;;;9.58;54.08;101580.09;5034242;28;20032;-68
2023/03/15 07:20:14;;;;;;;14.95;13.82;;;;;;;9.57;54.19;101584.66;5033582;28;20037;-68
2023/03/15 07:22:39;;;;;;;13.43;12.60;;;;;;;9.58;54.07;101582.81;5034070;28;20033;-68
2023/03/15 07:25:06;;;;;;;15.32;14.27;;;;;;;9.56;53.97;101585.69;5033518;28;20120;-68
2023/03/15 07:27:32;;;;;;;13.68;12.88;;;;;;;9.57;54.03;101600.00;5048705;28;20060;-68
2023/03/15 07:29:57;;;;;;;15.43;14.43;;;;;;;9.57;53.89;101602.69;5033342;28;20033;-68
2023/03/15 07:32:22;;;;;;;13.45;12.65;;;;;;;9.56;54.12;101603.75;5033517;28;20033;-67
2023/03/15 07:34:48;;;;;;;14.25;13.35;;;;;;;9.54;53.94;101604.78;5033737;28;20121;-68
2023/03/15 07:37:13;;;;;;;14.95;13.95;;;;;;;9.54;54.27;101609.34;5033235;28;20041;-68
2023/03/15 07:39:40;;;;;;;16.27;15.07;;;;;;;9.54;54.06;101610.19;5048355;28;20045;-68
2023/03/15 07:42:06;;;;;;;17.10;15.80;;;;;;;9.54;53.95;101620.97;5032910;28;20033;-68
2023/03/15 07:44:31;;;;;;;15.27;14.07;;;;;;;9.55;53.96;101629.91;5032489;28;20033;-68
2023/03/15 07:46:57;;;;;;;16.13;14.95;;;;;;;9.54;54.12;101629.06;5032644;28;20102;-68
2023/03/15 07:49:23;;;;;;;14.35;13.40;;;;;;;9.54;54.04;101630.94;5032708;28;20038;-68
2023/03/15 07:51:52;;;;;;;15.23;14.23;;;;;;;9.54;53.97;101634.44;5032773;28;20088;-68
2023/03/15 07:54:18;;;;;;;16.58;15.57;;;;;;;9.53;53.98;101635.50;5032570;28;20485;-68
2023/03/15 07:56:43;;;;;;;16.45;15.25;;;;;;;9.52;53.91;101644.66;5032429;28;20588;-67
2023/03/15 07:59:09;;;;;;;17.35;15.75;;;;;;;9.53;54.24;101653.56;5032597;28;20116;-68
2023/03/15 08:01:34;;;;;;;16.10;15.00;;;;;;;9.51;54.01;101661.84;5032258;28;20111;-68
2023/03/15 08:03:59;;;;;;;17.15;15.75;;;;;;;9.52;54.35;101665.38;5032057;28;20042;-68
2023/03/15 08:06:25;;;;;;;17.33;16.08;;;;;;;9.52;54.04;101676.16;5032753;28;20026;-67
2023/03/15 08:08:50;;;;;;;15.23;14.13;;;;;;;9.52;53.90;101677.03;5036965;28;20076;-68
2023/03/15 08:11:15;;;;;;;14.85;13.95;;;;;;;9.52;54.12;101676.16;5036159;28;20061;-68
2023/03/15 08:13:41;;;;;;;14.15;13.25;;;;;;;9.52;53.97;101679.72;5051602;28;20120;-68
2023/03/15 08:16:06;;;;;;;15.98;14.48;;;;;;;9.51;54.01;101679.91;5036093;28;20083;-68
2023/03/15 08:18:32;;;;;;;16.30;15.10;;;;;;;9.50;54.07;101679.09;5036181;28;20451;-68
2023/03/15 08:20:58;;;;;;;17.33;15.98;;;;;;;9.49;54.06;101685.50;5051306;28;20033;-67
2023/03/15 08:23:23;;;;;;;18.83;17.25;;;;;;;9.51;53.81;101690.69;5035946;28;20389;-69
2023/03/15 08:25:49;;;;;;;15.00;14.10;;;;;;;9.50;54.16;101691.75;5036018;28;20025;-69
2023/03/15 08:28:14;;;;;;;14.27;13.32;;;;;;;9.49;54.09;101692.78;5036142;28;20084;-69
2023/03/15 08:30:39;;;;;;;16.65;15.45;;;;;;;9.48;54.14;101694.66;5035963;28;20056;-69
2023/03/15 08:33:06;;;;;;;18.05;16.70;;;;;;;9.49;54.23;101687.38;5036131;28;20432;-69
2023/03/15 08:35:33;;;;;;;14.75;13.75;;;;;;;9.49;53.92;101693.59;5035565;28;20482;-69
2023/03/15 08:38:01;;;;;;;14.98;14.05;;;;;;;9.49;53.96;101698.16;5036071;28;20029;-67
2023/03/15 08:40:27;;;;;;;16.10;14.93;;;;;;;9.49;54.13;101699.00;5035703;28;20037;-67
2023/03/15 08:42:54;;;;;;;16.80;15.65;;;;;;;9.50;54.04;101713.34;5035823;28;20040;-67
2023/03/15 08:45:22;;;;;;;14.43;13.52;;;;;;;9.50;54.00;101714.16;5035709;28;20060;-67
2023/03/15 08:47:48;;;;;;;14.65;13.15;;;;;;;9.50;53.92;101710.63;5050873;28;20025;-67
2023/03/15 08:50:15;;;;;;;16.73;15.52;;;;;;;9.49;53.77;101709.78;5050877;28;20528;-67
2023/03/15 08:52:41;;;;;;;17.25;15.95;;;;;;;9.48;54.10;101710.00;5035527;28;20029;-67
2023/03/15 08:55:07;;;;;;;15.20;14.20;;;;;;;9.48;54.01;101715.41;5035231;28;20086;-68
2023/03/15 08:57:33;;;;;;;14.18;13.23;;;;;;;9.48;54.05;101718.09;5035790;28;20064;-67
2023/03/15 09:00:00;;;;;;;15.60;14.52;;;;;;;9.47;54.19;101719.94;5035350;28;20094;-68
2023/03/15 09:02:26;;;;;;;14.98;13.90;;;;;;;9.48;53.95;101724.31;5035447;28;20067;-68
2023/03/15 09:04:52;;;;;;;13.35;12.55;;;;;;;9.49;54.24;101722.44;5035064;28;20030;-67
2023/03/15 09:07:17;;;;;;;15.48;14.57;;;;;;;9.48;54.27;101732.41;5034876;28;20107;-67
2023/03/15 09:09:46;;;;;;;13.95;13.15;;;;;;;9.49;53.93;101725.13;5035048;28;20513;-68
2023/03/15 09:12:14;;;;;;;16.80;15.52;;;;;;;9.49;54.13;101728.66;5035358;28;20529;-68
2023/03/15 09:14:39;;;;;;;15.80;14.57;;;;;;;9.49;54.09;101725.97;5050898;28;20033;-68
2023/03/15 09:17:05;;;;;;;19.70;16.00;;;;;;;9.49;53.99;101720.56;5034871;28;20124;-68
2023/03/15 09:19:31;;;;;;;16.45;15.23;;;;;;;9.50;53.90;101727.63;5033222;28;20029;-69
2023/03/15 09:21:56;;;;;;;14.27;13.38;;;;;;;9.50;53.83;101719.53;5050566;28;20503;-68
2023/03/15 09:24:22;;;;;;;14.45;13.32;;;;;;;9.50;54.01;101722.25;5035007;28;20124;-68
2023/03/15 09:26:47;;;;;;;14.32;13.52;;;;;;;9.51;54.09;101721.19;5034738;28;20033;-67
2023/03/15 09:29:13;;;;;;;15.05;14.00;;;;;;;9.52;54.04;101719.31;5034999;28;20112;-68
2023/03/15 09:31:38;;;;;;;14.85;13.75;;;;;;;9.51;53.98;101723.88;5034793;28;20045;-68
2023/03/15 09:34:04;;;;;;;16.45;15.27;;;;;;;9.53;54.38;101724.50;5034808;28;20115;-67
2023/03/15 09:36:31;;;;;;;15.88;14.27;;;;;;;9.54;54.26;101722.63;5050209;28;20033;-67
2023/03/15 09:38:56;;;;;;;12.38;11.68;;;;;;;9.54;54.18;101717.25;5034831;28;20030;-68
2023/03/15 09:41:44;;;;;;;13.20;12.38;;;;;;;9.54;53.98;101728.03;5034999;28;20029;-67
2023/03/15 09:44:28;;;;;;;14.52;13.48;;;;;;;9.52;54.12;101722.88;5035320;28;20029;-67
2023/03/15 09:46:59;;;;;;;15.57;14.55;;;;;;;9.51;53.96;101725.75;5034189;28;20033;-67
2023/03/15 09:49:46;;;;;;;14.02;13.13;;;;;;;9.50;54.22;101727.63;5034294;28;20061;-68
2023/03/15 09:52:17;;;;;;;17.20;16.00;;;;;;;9.50;53.79;101724.94;5034665;28;20029;-67
2023/03/15 09:54:48;;;;;;;13.82;12.93;;;;;;;9.50;54.06;101733.03;5050505;28;20417;-68
2023/03/15 09:57:22;;;;;;;14.73;13.63;;;;;;;9.50;54.20;101738.44;5034549;28;20108;-67
2023/03/15 09:59:51;;;;;;;14.55;13.65;;;;;;;9.50;54.16;101738.44;5034582;28;20025;-67
2023/03/15 10:02:30;;;;;;;16.00;14.27;;;;;;;9.50;54.29;101733.03;5034389;28;20087;-68
2023/03/15 10:05:08;;;;;;;14.63;13.63;;;;;;;9.50;54.34;101741.13;5034497;28;20124;-67
2023/03/15 10:07:34;;;;;;;15.23;14.20;;;;;;;9.49;54.37;101736.75;5032502;28;20056;-68
2023/03/15 10:10:00;;;;;;;14.85;13.80;;;;;;;9.50;54.56;101737.59;5034192;28;20256;-67
2023/03/15 10:12:36;;;;;;;15.13;13.60;;;;;;;9.50;54.36;101745.69;5034561;28;20056;-67
2023/03/15 10:15:15;;;;;;;16.33;14.70;;;;;;;9.50;54.26;101743.81;5034440;28;20025;-68
2023/03/15 10:17:50;;;;;;;15.10;13.93;;;;;;;9.51;54.43;101731.97;5034466;28;20034;-67
2023/03/15 10:20:20;;;;;;;16.13;14.85;;;;;;;9.52;54.39;101732.81;5034070;28;20381;-67
2023/03/15 10:22:57;;;;;;;12.93;12.13;;;;;;;9.53;54.50;101745.25;5034192;28;20026;-69
2023/03/15 10:25:27;;;;;;;16.90;15.60;;;;;;;9.54;54.64;101744.22;5033893;28;20039;-68
2023/03/15 10:28:08;;;;;;;15.63;14.52;;;;;;;9.57;54.46;101737.56;5034316;28;20358;-67
2023/03/15 10:30:36;;;;;;;16.30;15.25;;;;;;;9.58;54.50;101739.25;5033598;28;20029;-68
2023/03/15 10:33:14;;;;;;;16.65;15.63;;;;;;;9.59;54.50;101741.72;5034629;28;20083;-67
2023/03/15 10:35:41;;;;;;;15.07;14.07;;;;;;;9.61;54.60;101758.53;5034326;28;20025;-67
2023/03/15 10:38:19;;;;;;;14.38;13.57;;;;;;;9.62;54.35;101760.16;5034092;28;20036;-68
2023/03/15 10:40:58;;;;;;;13.90;13.07;;;;;;;9.64;54.65;101751.88;5033838;28;20420;-67
2023/03/15 10:43:31;;;;;;;17.00;15.75;;;;;;;9.65;54.59;101750.81;5033798;28;20033;-66
2023/03/15 10:46:24;;;;;;;15.27;14.38;;;;;;;9.65;54.50;101759.75;5033903;28;20411;-68
2023/03/15 10:49:05;;;;;;;14.23;13.35;;;;;;;9.66;54.61;101766.81;5034252;28;20025;-67
2023/03/15 10:51:37;;;;;;;16.08;14.80;;;;;;;9.68;54.57;101759.34;5034017;28;20044;-67
2023/03/15 10:54:12;;;;;;;14.20;13.40;;;;;;;9.70;54.71;101773.44;5033375;28;20021;-67
2023/03/15 10:56:49;;;;;;;15.40;14.05;;;;;;;9.73;54.49;101772.19;5033405;28;20053;-67
2023/03/15 10:59:23;;;;;;;15.45;13.75;;;;;;;9.75;54.46;101770.94;5033543;28;20071;-66
2023/03/15 11:01:51;;;;;;;15.95;14.65;;;;;;;9.77;54.38;101768.00;5033531;28;20033;-67
2023/03/15 11:04:29;;;;;;;15.67;14.57;;;;;;;9.79;53.97;101768.63;5033070;28;20084;-68
2023/03/15 11:06:56;;;;;;;14.80;13.82;;;;;;;9.80;54.31;101775.69;5033360;28;20069;-68
2023/03/15 11:09:25;;;;;;;19.35;16.35;;;;;;;9.83;54.37;101779.84;5034079;28;20099;-68
2023/03/15 11:12:01;;;;;;;;;;;;;;;9.83;54.48;101777.16;5033724;28;20091;-68
2023/03/15 11:14:39;;;;;;;15.10;13.98;;;;;;;9.82;54.36;101780.88;5033135;28;19932;-68
2023/03/15 11:17:08;;;;;;;13.60;12.80;;;;;;;9.83;54.49;101796.03;5033526;28;20033;-67